Los Posos, Valles Caldera, New Mexico Weather observations

Data are for 10 minute period ending at time listed.
 Day   Time   Solar   Ave.   Ave.  Ave.  Vector  Max.   Baro.   Total    
  of    of     Rad.   Air    Rel.  Wind   Wind   Wind  Press.  Precip.   
Year   Day            Temp.  Hum.  Speed  Dir.   Gust                    
2014   (MST)  Kw/m2    F      %     mph   deg.    mph    mb.     in.     
-------------------------------------------------------------------------
 205   13:30   0.52   74.1    34    4.0   289     9.6   99999.0    0.00 
 205   13:40   0.24   72.8    35    4.2   308    13.7   99999.0    0.00 
 205   13:50   0.33   70.8    37    5.4   219    11.9   99999.0    0.00 
 205   14:00   0.65   71.2    36    6.0   265    13.1   99999.0    0.00 
 205   14:10   0.29   72.2    37    3.5   252    10.8   99999.0    0.00 
 205   14:20   0.48   71.7    37    5.5   249    11.3   99999.0    0.00 
 205   14:30   0.86   72.9    34    6.9   231    13.1   99999.0    0.00 
 205   14:40   0.88   74.4    32    6.1   236    13.1   99999.0    0.00 
 205   14:50   0.42   73.4    32    5.1   275    11.9   99999.0    0.00 
 205   15:00   0.68   74.0    32    5.4   224    11.9   99999.0    0.00 
 205   15:10   0.78   75.5    30    5.8   279    11.9   99999.0    0.00 
 205   15:20   0.57   75.0    31    5.6   230    10.2   99999.0    0.00 
 205   15:30   0.71   74.8    30    4.3   282     9.6   99999.0    0.00 
 205   15:40   0.48   75.3    30    5.5   226    10.2   99999.0    0.00 
 205   15:50   0.67   75.3    31    5.3   228    10.8   99999.0    0.00 
 205   16:00   0.56   74.3    33    6.3   192    10.8   99999.0    0.00 
 205   16:10   0.59   74.4    34    6.9   173    13.1   99999.0    0.00 
 205   16:20   0.15   71.9    34    6.9   186    14.3   99999.0    0.00 
 205   16:30   0.35   71.6    34    4.9   192    11.3   99999.0    0.00 
 205   16:40   0.33   72.5    33    5.4   192    11.9   99999.0    0.00 
 205   16:50   0.47   73.9    32    6.2   201    10.8   99999.0    0.00 
 205   17:00   0.31   73.0    31    6.9   194    16.1   99999.0    0.00 
 205   17:10   0.32   72.3    32    6.5   189    11.9   99999.0    0.00 
 205   17:20   0.34   73.1    31    5.4   200    10.2   99999.0    0.00 
 205   17:30   0.29   73.3    30    6.1   214     9.0   99999.0    0.00 
 205   17:40   0.28   72.8    30    5.6   212    10.2   99999.0    0.00 
 205   17:50   0.24   72.7    30    6.0   194    10.8   99999.0    0.00 
 205   18:00   0.20   72.2    31    5.3   196     9.6   99999.0    0.00 
 205   18:10   0.17   71.7    31    4.9   207     8.4   99999.0    0.00 
 205   18:20   0.15   71.3    31    4.8   223     8.4   99999.0    0.00 
 205   18:30   0.12   71.0    31    3.7   210     7.2   99999.0    0.00 
 205   18:40   0.10   70.5    32    3.7   213     7.8   99999.0    0.00 
 205   18:50   0.06   68.8    34    4.2   217     7.2   99999.0    0.00 
 205   19:00   0.03   67.1    38    3.9   227     6.6   99999.0    0.00 
 205   19:10   0.01   66.1    38    5.0   222     8.4   99999.0    0.00 
 205   19:20   0.01   65.5    40    3.9   216     7.2   99999.0    0.00 
 205   19:30   0.00   62.3    49    2.8   200     4.2   99999.0    0.00 
 205   19:40   0.00   60.2    53    2.9   200     4.2   99999.0    0.00 
 205   19:50   0.00   58.8    55    2.8   201     3.6   99999.0    0.00 
 205   20:00   0.00   58.5    55    2.7   206     3.6   99999.0    0.00 
 205   20:10   0.00   56.7    62    2.5   220     3.6   99999.0    0.00 
 205   20:20   0.00   54.6    66    1.5   290     3.0   99999.0    0.00 
 205   20:30   0.00   53.7    70    1.4   236     3.0   99999.0    0.00 
 205   20:40   0.00   53.4    69    0.9   238     3.0   99999.0    0.00 
 205   20:50   0.00   53.0    68    0.1   228     1.8   99999.0    0.00 
 205   21:00   0.00   52.2    70    0.8   253     2.4   99999.0    0.00 
 205   21:10   0.00   51.6    73    0.0   286     1.2   99999.0    0.00 
 205   21:20   0.00   51.9    74    0.0     0     0.0   99999.0    0.00 
 205   21:30   0.00   52.6    76    0.0     0     0.0   99999.0    0.00 
 205   21:40   0.00   53.2    72    0.0     0     0.0   99999.0    0.00 
 205   21:50   0.00   53.5    70    0.0     0     0.0   99999.0    0.00 
 205   22:00   0.00   54.1    67    0.0     0     0.0   99999.0    0.00 
 205   22:10   0.00   53.8    70    0.0     0     0.0   99999.0    0.00 
 205   22:20   0.00   53.0    74    0.0     0     0.0   99999.0    0.00 
 205   22:30   0.00   52.4    74    0.3   260     2.4   99999.0    0.00 
 205   22:40   0.00   52.2    74    0.4   238     2.4   99999.0    0.00 
 205   22:50   0.00   51.6    74    0.4   248     2.4   99999.0    0.00 
 205   23:00   0.00   51.6    74    0.1   238     1.8   99999.0    0.00 
 205   23:10   0.00   51.2    74    0.1   221     1.2   99999.0    0.00 
 205   23:20   0.00   51.1    74    0.2   232     1.8   99999.0    0.00 
 205   23:30   0.00   51.1    72    0.1   214     1.8   99999.0    0.00 
 205   23:40   0.00   51.0    71    0.4   256     2.4   99999.0    0.00 
 205   23:50   0.00   50.6    73    0.0   211     1.2   99999.0    0.00 
 206    0:00   0.00   50.3    73    0.0     0     0.0   99999.0    0.00 
 206    0:10   0.00   49.6    76    0.0     0     0.0   99999.0    0.00 
 206    0:20   0.00   49.1    77    0.3   240     2.4   99999.0    0.00 
 206    0:30   0.00   49.2    76    0.4   241     2.4   99999.0    0.00 
 206    0:40   0.00   48.8    79    0.0     0     0.0   99999.0    0.00 
 206    0:50   0.00   48.3    80    0.0     0     0.0   99999.0    0.00 
 206    1:00   0.00   48.4    78    0.3   221     2.4   99999.0    0.00 
 206    1:10   0.00   48.6    77    0.2   230     1.8   99999.0    0.00 
 206    1:20   0.00   49.0    78    0.6   356     3.0   99999.0    0.00 
 206    1:30   0.00   48.1    79    0.1    48     1.8   99999.0    0.00 
 206    1:40   0.00   47.6    82    0.2   241     2.4   99999.0    0.00 
 206    1:50   0.00   47.4    81    0.6   304     3.0   99999.0    0.00 
 206    2:00   0.00   47.8    80    0.3   302     2.4   99999.0    0.00 
 206    2:10   0.00   48.0    81    0.8   223     3.0   99999.0    0.00 
 206    2:20   0.00   48.2    78    0.1   107     1.8   99999.0    0.00 
 206    2:30   0.00   47.3    79    0.2    91     1.8   99999.0    0.00 
 206    2:40   0.00   46.8    82    1.4   239     3.0   99999.0    0.00 
 206    2:50   0.00   46.6    85    0.0     0     0.0   99999.0    0.00 
 206    3:00   0.00   46.6    84    1.2   322     3.0   99999.0    0.00 
 206    3:10   0.00   46.4    83    0.4   257     2.4   99999.0    0.00 
 206    3:20   0.00   46.7    83    0.6   290     2.4   99999.0    0.00 
 206    3:30   0.00   46.3    84    0.2   228     1.8   99999.0    0.00 
 206    3:40   0.00   46.5    82    0.0     0     0.0   99999.0    0.00 
 206    3:50   0.00   45.8    84    0.0     0     0.0   99999.0    0.00 
 206    4:00   0.00   45.2    86    0.0     0     0.0   99999.0    0.00 
 206    4:10   0.00   45.7    86    0.0     0     0.0   99999.0    0.00 
 206    4:20   0.00   45.7    85    0.0     0     0.0   99999.0    0.00 
 206    4:30   0.00   45.3    86    1.1   247     3.0   99999.0    0.00 
 206    4:40   0.00   45.1    85    0.7   246     3.0   99999.0    0.00 
 206    4:50   0.00   45.0    85    0.9   235     3.0   99999.0    0.00 
 206    5:00   0.00   44.7    85    1.3   257     3.0   99999.0    0.00 
 206    5:10   0.00   44.7    85    1.0   265     2.4   99999.0    0.00 
 206    5:20   0.01   44.7    84    0.2   313     2.4   99999.0    0.00 
 206    5:30   0.01   44.1    86    0.0   242     1.2   99999.0    0.00 
 206    5:40   0.02   44.3    87    0.3   240     2.4   99999.0    0.00 
 206    5:50   0.07   45.5    85    0.3   248     1.8   99999.0    0.00 
 206    6:00   0.10   47.6    82    0.8     8     3.0   99999.0    0.00 
 206    6:10   0.14   49.2    78    1.6     2     3.6   99999.0    0.00 
 206    6:20   0.16   51.0    75    0.9   298     2.4   99999.0    0.00 
 206    6:30   0.20   53.8    70    0.7   291     2.4   99999.0    0.00 
 206    6:40   0.23   57.7    65    1.0   355     2.4   99999.0    0.00 
 206    6:50   0.26   61.3    58    0.6     1     3.0   99999.0    0.00 
 206    7:00   0.29   63.7    57    0.6    14     3.0   99999.0    0.00 
 206    7:10   0.33   64.8    58    1.5    14     2.4   99999.0    0.00 
 206    7:20   0.36   67.0    55    2.0    48     3.6   99999.0    0.00 
 206    7:30   0.40   70.0    44    2.8    44     4.8   99999.0    0.00 
 206    7:40   0.43   71.8    40    2.2    44     3.6   99999.0    0.00 
 206    7:50   0.47   73.7    38    2.9    55     4.2   99999.0    0.00 
 206    8:00   0.50   73.7    38    4.6     7     7.8   99999.0    0.00 
 206    8:10   0.53   73.1    37    5.7   353     9.0   99999.0    0.00 
 206    8:20   0.56   73.2    38    5.4   348     9.0   99999.0    0.00 
 206    8:30   0.59   73.5    39    4.8   355     9.0   99999.0    0.00 
 206    8:40   0.62   74.5    38    3.8   354     7.2   99999.0    0.00 
 206    8:50   0.66   74.0    39    5.6   340    10.8   99999.0    0.00 
 206    9:00   0.69   73.5    37    8.4   336    14.9   99999.0    0.00 
 206    9:10   0.71   73.1    36    8.0   320    17.9   99999.0    0.00 
 206    9:20   0.74   72.1    37    7.3   283    16.1   99999.0    0.00 
 206    9:30   0.77   72.1    38    6.7   295    11.9   99999.0    0.00 
 206    9:40   0.81   72.4    38    7.6   291    13.7   99999.0    0.00 
 206    9:50   0.83   72.7    37    5.4   276    13.1   99999.0    0.00 
 206   10:00   0.88   74.1    36    6.9   285    13.7   99999.0    0.00 
 206   10:10   0.94   74.0    36    7.3   303    13.1   99999.0    0.00 
 206   10:20   1.01   75.6    35    9.7   338    16.7   99999.0    0.00 
 206   10:30   0.61   76.4    33    7.3   339    12.5   99999.0    0.00 
 206   10:40   0.43   72.3    36    5.8   288     9.6   99999.0    0.00 
 206   10:50   1.05   75.1    36    7.1   325    13.1   99999.0    0.00 
 206   11:00   1.08   78.2    32    7.7   337    17.9   99999.0    0.00 
 206   11:10   1.13   78.2    33    8.7   338    13.7   99999.0    0.00 
 206   11:20   0.60   76.0    33    5.4   340    11.9   99999.0    0.00 
 206   11:30   0.52   74.9    33    6.6   320    11.9   99999.0    0.00 
 206   11:40   0.28   72.9    38    5.2   318    10.8   99999.0    0.00 
 206   11:50   0.38   73.5    38    4.4   338    10.8   99999.0    0.00 
 206   12:00   0.29   73.9    36    4.9   339     9.0   99999.0    0.00 
 206   12:10   0.70   74.3    37    4.9    23     7.2   99999.0    0.00 
 206   12:20   0.61   75.4    35    6.4   298    13.1   99999.0    0.00 
 206   12:30   0.25   72.9    36    6.7   319    11.9   99999.0    0.00 
 206   12:40   0.25   72.5    38    4.0   342     8.4   99999.0    0.00 
 206   12:50   0.24   73.6    37    3.2     1     6.0   99999.0    0.00 
 206   13:00   0.26   73.5    35    2.8   288     7.2   99999.0    0.00 
 206   13:10   0.51   73.1    35    3.9   274     9.6   99999.0    0.00 
 206   13:20   0.95   76.7    32    4.8    13    10.8   99999.0    0.00 

Return to Los Posos, Valles Caldera graphs page.


Western Regional Climate Center,wrcc@dri.edu